sensor_id;sensor_type;location;lat;lon;timestamp;pressure;altitude;pressure_sealevel;temperature;humidity
69173;BME280;56280;49.662;8.408;2024-01-27T00:00:04;102590.63;;;5.08;100.00
69173;BME280;56280;49.662;8.408;2024-01-27T00:02:30;102582.94;;;4.99;100.00
69173;BME280;56280;49.662;8.408;2024-01-27T00:04:55;102588.13;;;5.02;100.00
69173;BME280;56280;49.662;8.408;2024-01-27T00:07:20;102576.97;;;4.90;100.00
69173;BME280;56280;49.662;8.408;2024-01-27T00:09:45;102576.19;;;4.87;100.00
69173;BME280;56280;49.662;8.408;2024-01-27T00:12:11;102558.34;;;4.62;100.00
69173;BME280;56280;49.662;8.408;2024-01-27T00:14:38;102573.00;;;4.72;100.00
69173;BME280;56280;49.662;8.408;2024-01-27T00:17:03;102568.59;;;4.73;100.00
69173;BME280;56280;49.662;8.408;2024-01-27T00:19:29;102578.56;;;4.60;100.00
69173;BME280;56280;49.662;8.408;2024-01-27T00:21:54;102576.25;;;4.46;100.00
69173;BME280;56280;49.662;8.408;2024-01-27T00:24:19;102585.50;;;4.64;100.00
69173;BME280;56280;49.662;8.408;2024-01-27T00:26:44;102583.66;;;4.68;100.00
69173;BME280;56280;49.662;8.408;2024-01-27T00:29:10;102582.88;;;4.63;100.00
69173;BME280;56280;49.662;8.408;2024-01-27T00:31:35;102524.88;;;4.28;100.00
69173;BME280;56280;49.662;8.408;2024-01-27T00:34:01;102563.13;;;4.45;100.00
69173;BME280;56280;49.662;8.408;2024-01-27T00:36:27;102577.00;;;4.51;100.00
69173;BME280;56280;49.662;8.408;2024-01-27T00:38:52;102595.19;;;4.62;100.00
69173;BME280;56280;49.662;8.408;2024-01-27T00:41:18;102577.09;;;4.47;100.00
69173;BME280;56280;49.662;8.408;2024-01-27T00:43:43;102581.47;;;4.48;100.00
69173;BME280;56280;49.662;8.408;2024-01-27T00:46:08;102607.44;;;4.63;100.00
69173;BME280;56280;49.662;8.408;2024-01-27T00:48:34;102590.09;;;4.54;100.00
69173;BME280;56280;49.662;8.408;2024-01-27T00:50:59;102604.94;;;4.57;100.00
69173;BME280;56280;49.662;8.408;2024-01-27T00:53:24;102598.22;;;4.44;100.00
69173;BME280;56280;49.662;8.408;2024-01-27T00:55:49;102605.16;;;4.48;100.00
69173;BME280;56280;49.662;8.408;2024-01-27T00:58:15;102598.56;;;4.28;100.00
69173;BME280;56280;49.662;8.408;2024-01-27T01:00:41;102608.09;;;4.32;100.00
69173;BME280;56280;49.662;8.408;2024-01-27T01:03:06;102605.34;;;4.38;100.00
69173;BME280;56280;49.662;8.408;2024-01-27T01:05:31;102605.69;;;4.22;100.00
69173;BME280;56280;49.662;8.408;2024-01-27T01:07:56;102594.41;;;4.16;100.00
69173;BME280;56280;49.662;8.408;2024-01-27T01:10:22;102578.81;;;4.06;100.00
69173;BME280;56280;49.662;8.408;2024-01-27T01:12:47;102605.91;;;4.12;100.00
69173;BME280;56280;49.662;8.408;2024-01-27T01:15:12;102599.97;;;4.03;100.00
69173;BME280;56280;49.662;8.408;2024-01-27T01:17:38;102603.56;;;3.97;100.00
69173;BME280;56280;49.662;8.408;2024-01-27T01:20:03;102612.28;;;3.99;100.00
69173;BME280;56280;49.662;8.408;2024-01-27T01:22:29;102615.47;;;3.70;100.00
69173;BME280;56280;49.662;8.408;2024-01-27T01:24:54;102630.28;;;3.74;100.00
69173;BME280;56280;49.662;8.408;2024-01-27T01:27:20;102615.56;;;3.63;100.00
69173;BME280;56280;49.662;8.408;2024-01-27T01:29:46;102629.63;;;3.62;100.00
69173;BME280;56280;49.662;8.408;2024-01-27T01:32:11;102627.44;;;3.35;100.00
69173;BME280;56280;49.662;8.408;2024-01-27T01:34:36;102628.03;;;3.52;100.00
69173;BME280;56280;49.662;8.408;2024-01-27T01:37:02;102611.59;;;3.39;100.00
69173;BME280;56280;49.662;8.408;2024-01-27T01:39:27;102643.47;;;3.72;100.00
69173;BME280;56280;49.662;8.408;2024-01-27T01:41:53;102648.50;;;3.83;100.00
69173;BME280;56280;49.662;8.408;2024-01-27T01:44:18;102584.31;;;3.48;100.00
69173;BME280;56280;49.662;8.408;2024-01-27T01:46:44;102651.03;;;3.89;100.00
69173;BME280;56280;49.662;8.408;2024-01-27T01:49:10;102618.88;;;3.75;100.00
69173;BME280;56280;49.662;8.408;2024-01-27T01:51:35;102651.91;;;3.90;100.00
69173;BME280;56280;49.662;8.408;2024-01-27T01:54:01;102642.38;;;3.84;100.00
69173;BME280;56280;49.662;8.408;2024-01-27T01:56:27;102640.66;;;3.81;100.00
69173;BME280;56280;49.662;8.408;2024-01-27T01:58:54;102630.28;;;3.75;100.00
69173;BME280;56280;49.662;8.408;2024-01-27T02:01:19;102608.66;;;3.59;100.00
69173;BME280;56280;49.662;8.408;2024-01-27T02:03:56;102646.91;;;3.76;100.00
69173;BME280;56280;49.662;8.408;2024-01-27T02:06:22;102645.22;;;3.72;100.00
69173;BME280;56280;49.662;8.408;2024-01-27T02:08:48;102640.97;;;3.64;100.00
69173;BME280;56280;49.662;8.408;2024-01-27T02:11:13;102651.53;;;3.61;100.00
69173;BME280;56280;49.662;8.408;2024-01-27T02:13:39;102645.50;;;3.55;100.00
69173;BME280;56280;49.662;8.408;2024-01-27T02:16:07;102644.75;;;3.48;100.00
69173;BME280;56280;49.662;8.408;2024-01-27T02:18:32;102587.69;;;3.03;100.00
69173;BME280;56280;49.662;8.408;2024-01-27T02:20:57;102635.38;;;3.32;100.00
69173;BME280;56280;49.662;8.408;2024-01-27T02:23:23;102639.78;;;3.29;100.00
69173;BME280;56280;49.662;8.408;2024-01-27T02:25:48;102628.63;;;3.15;100.00
69173;BME280;56280;49.662;8.408;2024-01-27T02:28:15;102569.81;;;2.71;100.00
69173;BME280;56280;49.662;8.408;2024-01-27T02:30:41;102645.19;;;3.20;100.00
69173;BME280;56280;49.662;8.408;2024-01-27T02:33:06;102670.47;;;3.29;100.00
69173;BME280;56280;49.662;8.408;2024-01-27T02:35:31;102690.41;;;3.41;100.00
69173;BME280;56280;49.662;8.408;2024-01-27T02:37:57;102677.28;;;3.41;100.00
69173;BME280;56280;49.662;8.408;2024-01-27T02:40:22;102671.22;;;3.36;100.00
69173;BME280;56280;49.662;8.408;2024-01-27T02:42:47;102665.97;;;3.36;100.00
69173;BME280;56280;49.662;8.408;2024-01-27T02:45:12;102673.00;;;3.35;100.00
69173;BME280;56280;49.662;8.408;2024-01-27T02:47:38;102661.72;;;3.28;100.00
69173;BME280;56280;49.662;8.408;2024-01-27T02:50:03;102678.31;;;3.31;100.00
69173;BME280;56280;49.662;8.408;2024-01-27T02:52:31;102661.84;;;3.19;100.00
69173;BME280;56280;49.662;8.408;2024-01-27T02:54:56;102664.53;;;3.15;100.00
69173;BME280;56280;49.662;8.408;2024-01-27T02:57:22;102682.75;;;3.28;100.00
69173;BME280;56280;49.662;8.408;2024-01-27T02:59:47;102680.25;;;3.18;100.00
69173;BME280;56280;49.662;8.408;2024-01-27T03:02:13;102670.84;;;3.03;100.00
69173;BME280;56280;49.662;8.408;2024-01-27T03:04:38;102678.78;;;3.00;100.00
69173;BME280;56280;49.662;8.408;2024-01-27T03:07:03;102688.16;;;3.16;100.00
69173;BME280;56280;49.662;8.408;2024-01-27T03:09:30;102681.25;;;3.09;100.00
69173;BME280;56280;49.662;8.408;2024-01-27T03:11:55;102679.50;;;3.09;100.00
69173;BME280;56280;49.662;8.408;2024-01-27T03:14:21;102688.25;;;3.10;100.00
69173;BME280;56280;49.662;8.408;2024-01-27T03:16:46;102683.03;;;3.08;100.00
69173;BME280;56280;49.662;8.408;2024-01-27T03:19:11;102694.50;;;3.03;100.00
69173;BME280;56280;49.662;8.408;2024-01-27T03:21:36;102690.31;;;2.86;100.00
69173;BME280;56280;49.662;8.408;2024-01-27T03:24:02;102683.91;;;2.39;100.00
69173;BME280;56280;49.662;8.408;2024-01-27T03:26:27;102677.03;;;2.32;100.00
69173;BME280;56280;49.662;8.408;2024-01-27T03:28:52;102695.16;;;2.49;100.00
69173;BME280;56280;49.662;8.408;2024-01-27T03:31:18;102707.44;;;2.48;100.00
69173;BME280;56280;49.662;8.408;2024-01-27T03:33:43;102678.03;;;2.18;100.00
69173;BME280;56280;49.662;8.408;2024-01-27T03:36:12;102654.44;;;2.17;100.00
69173;BME280;56280;49.662;8.408;2024-01-27T03:38:38;102698.59;;;2.54;100.00
69173;BME280;56280;49.662;8.408;2024-01-27T03:41:05;102701.19;;;2.57;100.00
69173;BME280;56280;49.662;8.408;2024-01-27T03:43:30;102690.81;;;2.46;100.00
69173;BME280;56280;49.662;8.408;2024-01-27T03:45:57;102708.19;;;2.60;100.00
69173;BME280;56280;49.662;8.408;2024-01-27T03:48:22;102686.41;;;2.51;100.00
69173;BME280;56280;49.662;8.408;2024-01-27T03:50:47;102708.09;;;2.66;100.00
69173;BME280;56280;49.662;8.408;2024-01-27T03:53:12;102683.03;;;2.40;100.00
69173;BME280;56280;49.662;8.408;2024-01-27T03:55:38;102706.19;;;1.96;100.00
69173;BME280;56280;49.662;8.408;2024-01-27T03:58:03;102682.06;;;1.63;100.00
69173;BME280;56280;49.662;8.408;2024-01-27T04:00:28;102708.69;;;2.10;100.00
69173;BME280;56280;49.662;8.408;2024-01-27T04:02:58;102700.75;;;2.19;100.00
69173;BME280;56280;49.662;8.408;2024-01-27T04:05:24;102712.03;;;2.28;100.00
69173;BME280;56280;49.662;8.408;2024-01-27T04:07:49;102707.66;;;2.25;100.00
69173;BME280;56280;49.662;8.408;2024-01-27T04:10:16;102713.69;;;2.35;100.00
69173;BME280;56280;49.662;8.408;2024-01-27T04:12:43;102705.00;;;2.30;100.00
69173;BME280;56280;49.662;8.408;2024-01-27T04:15:08;102698.91;;;2.28;100.00
69173;BME280;56280;49.662;8.408;2024-01-27T04:17:34;102711.06;;;2.35;100.00
69173;BME280;56280;49.662;8.408;2024-01-27T04:19:59;102723.56;;;2.11;100.00
69173;BME280;56280;49.662;8.408;2024-01-27T04:22:24;102736.81;;;1.93;100.00
69173;BME280;56280;49.662;8.408;2024-01-27T04:24:49;102724.03;;;1.56;100.00
69173;BME280;56280;49.662;8.408;2024-01-27T04:27:15;102740.41;;;1.84;100.00
69173;BME280;56280;49.662;8.408;2024-01-27T04:29:40;102706.41;;;1.73;100.00
69173;BME280;56280;49.662;8.408;2024-01-27T04:32:06;102704.56;;;1.88;100.00
69173;BME280;56280;49.662;8.408;2024-01-27T04:34:32;102702.78;;;1.90;100.00
69173;BME280;56280;49.662;8.408;2024-01-27T04:36:57;102737.53;;;2.13;100.00
69173;BME280;56280;49.662;8.408;2024-01-27T04:39:22;102717.56;;;2.00;100.00
69173;BME280;56280;49.662;8.408;2024-01-27T04:41:47;102719.31;;;1.96;100.00
69173;BME280;56280;49.662;8.408;2024-01-27T04:44:13;102735.03;;;1.96;100.00
69173;BME280;56280;49.662;8.408;2024-01-27T04:46:38;102725.44;;;1.97;100.00
69173;BME280;56280;49.662;8.408;2024-01-27T04:49:04;102752.50;;;1.99;100.00
69173;BME280;56280;49.662;8.408;2024-01-27T04:51:31;102729.09;;;1.79;100.00
69173;BME280;56280;49.662;8.408;2024-01-27T04:53:57;102749.13;;;1.88;100.00
69173;BME280;56280;49.662;8.408;2024-01-27T04:56:22;102747.34;;;1.88;100.00
69173;BME280;56280;49.662;8.408;2024-01-27T04:58:47;102761.34;;;1.89;100.00
69173;BME280;56280;49.662;8.408;2024-01-27T05:01:12;102757.00;;;1.85;100.00
69173;BME280;56280;49.662;8.408;2024-01-27T05:03:38;102747.47;;;1.74;100.00
69173;BME280;56280;49.662;8.408;2024-01-27T05:06:03;102737.03;;;1.71;100.00
69173;BME280;56280;49.662;8.408;2024-01-27T05:08:32;102737.84;;;1.75;100.00
69173;BME280;56280;49.662;8.408;2024-01-27T05:10:57;102756.97;;;1.89;100.00
69173;BME280;56280;49.662;8.408;2024-01-27T05:13:22;102746.50;;;1.86;100.00
69173;BME280;56280;49.662;8.408;2024-01-27T05:15:48;102749.13;;;1.85;100.00
69173;BME280;56280;49.662;8.408;2024-01-27T05:18:16;102721.38;;;1.60;100.00
69173;BME280;56280;49.662;8.408;2024-01-27T05:20:41;102723.94;;;1.67;100.00
69173;BME280;56280;49.662;8.408;2024-01-27T05:23:06;102740.53;;;1.69;100.00
69173;BME280;56280;49.662;8.408;2024-01-27T05:25:32;102751.03;;;1.64;100.00
69173;BME280;56280;49.662;8.408;2024-01-27T05:27:58;102745.88;;;1.55;100.00
69173;BME280;56280;49.662;8.408;2024-01-27T05:30:23;102750.22;;;1.57;100.00
69173;BME280;56280;49.662;8.408;2024-01-27T05:32:48;102765.88;;;1.65;100.00
69173;BME280;56280;49.662;8.408;2024-01-27T05:35:13;102766.63;;;1.82;100.00
69173;BME280;56280;49.662;8.408;2024-01-27T05:37:39;102756.25;;;1.67;100.00
69173;BME280;56280;49.662;8.408;2024-01-27T05:40:06;102714.50;;;1.49;100.00
69173;BME280;56280;49.662;8.408;2024-01-27T05:42:31;102763.16;;;1.84;100.00
69173;BME280;56280;49.662;8.408;2024-01-27T05:44:57;102757.91;;;1.80;100.00
69173;BME280;56280;49.662;8.408;2024-01-27T05:47:22;102759.66;;;1.78;100.00
69173;BME280;56280;49.662;8.408;2024-01-27T05:49:47;102781.50;;;1.84;100.00
69173;BME280;56280;49.662;8.408;2024-01-27T05:52:12;102784.22;;;1.65;100.00
69173;BME280;56280;49.662;8.408;2024-01-27T05:54:40;102766.78;;;1.61;100.00
69173;BME280;56280;49.662;8.408;2024-01-27T05:57:06;102776.34;;;1.67;100.00
69173;BME280;56280;49.662;8.408;2024-01-27T05:59:32;102778.97;;;1.68;100.00
69173;BME280;56280;49.662;8.408;2024-01-27T06:01:57;102783.34;;;1.68;100.00
69173;BME280;56280;49.662;8.408;2024-01-27T06:04:26;102780.72;;;1.69;100.00
69173;BME280;56280;49.662;8.408;2024-01-27T06:06:52;102766.88;;;1.49;100.00
69173;BME280;56280;49.662;8.408;2024-01-27T06:09:29;102787.94;;;1.24;100.00
69173;BME280;56280;49.662;8.408;2024-01-27T06:11:59;102797.56;;;1.22;100.00
69173;BME280;56280;49.662;8.408;2024-01-27T06:14:25;102778.47;;;1.01;100.00
69173;BME280;56280;49.662;8.408;2024-01-27T06:16:50;102798.53;;;0.99;100.00
69173;BME280;56280;49.662;8.408;2024-01-27T06:19:16;102808.97;;;1.10;100.00
69173;BME280;56280;49.662;8.408;2024-01-27T06:21:42;102798.53;;;1.08;100.00
69173;BME280;56280;49.662;8.408;2024-01-27T06:24:08;102801.13;;;1.08;100.00
69173;BME280;56280;49.662;8.408;2024-01-27T06:26:33;102780.25;;;0.91;100.00
69173;BME280;56280;49.662;8.408;2024-01-27T06:28:58;102795.06;;;0.97;100.00
69173;BME280;56280;49.662;8.408;2024-01-27T06:31:23;102797.59;;;1.19;100.00
69173;BME280;56280;49.662;8.408;2024-01-27T06:33:49;102794.06;;;1.26;100.00
69173;BME280;56280;49.662;8.408;2024-01-27T06:36:14;102809.69;;;1.43;100.00
69173;BME280;56280;49.662;8.408;2024-01-27T06:38:39;102788.84;;;1.24;100.00
69173;BME280;56280;49.662;8.408;2024-01-27T06:41:04;102784.53;;;1.13;100.00
69173;BME280;56280;49.662;8.408;2024-01-27T06:43:30;102802.03;;;0.98;100.00
69173;BME280;56280;49.662;8.408;2024-01-27T06:45:55;102795.91;;;1.04;100.00
69173;BME280;56280;49.662;8.408;2024-01-27T06:48:22;102788.03;;;1.08;100.00
69173;BME280;56280;49.662;8.408;2024-01-27T06:50:50;102794.09;;;1.20;100.00
69173;BME280;56280;49.662;8.408;2024-01-27T06:53:15;102814.13;;;1.30;100.00
69173;BME280;56280;49.662;8.408;2024-01-27T06:55:41;102818.47;;;1.36;100.00
69173;BME280;56280;49.662;8.408;2024-01-27T06:58:09;102767.97;;;1.11;100.00
69173;BME280;56280;49.662;8.408;2024-01-27T07:00:35;102794.22;;;0.95;100.00
69173;BME280;56280;49.662;8.408;2024-01-27T07:03:00;102776.75;;;0.96;100.00
69173;BME280;56280;49.662;8.408;2024-01-27T07:05:25;102788.88;;;1.17;100.00
69173;BME280;56280;49.662;8.408;2024-01-27T07:07:51;102790.66;;;1.12;100.00
69173;BME280;56280;49.662;8.408;2024-01-27T07:10:16;102798.47;;;1.21;100.00
69173;BME280;56280;49.662;8.408;2024-01-27T07:12:41;102785.38;;;1.21;100.00
69173;BME280;56280;49.662;8.408;2024-01-27T07:15:07;102803.63;;;1.36;100.00
69173;BME280;56280;49.662;8.408;2024-01-27T07:17:32;102792.31;;;1.26;100.00
69173;BME280;56280;49.662;8.408;2024-01-27T07:19:57;102788.81;;;1.29;100.00
69173;BME280;56280;49.662;8.408;2024-01-27T07:22:23;102801.00;;;1.36;100.00
69173;BME280;56280;49.662;8.408;2024-01-27T07:24:49;102794.78;;;1.50;100.00
69173;BME280;56280;49.662;8.408;2024-01-27T07:27:16;102804.31;;;1.69;100.00
69173;BME280;56280;49.662;8.408;2024-01-27T07:29:42;102805.94;;;1.82;100.00
69173;BME280;56280;49.662;8.408;2024-01-27T07:32:07;102803.44;;;1.62;100.00
69173;BME280;56280;49.662;8.408;2024-01-27T07:34:38;102806.00;;;1.75;100.00
69173;BME280;56280;49.662;8.408;2024-01-27T07:37:03;102778.00;;;1.80;100.00
69173;BME280;56280;49.662;8.408;2024-01-27T07:39:28;102794.38;;;2.11;100.00
69173;BME280;56280;49.662;8.408;2024-01-27T07:41:53;102797.69;;;2.32;100.00
69173;BME280;56280;49.662;8.408;2024-01-27T07:44:19;102818.34;;;2.66;100.00
69173;BME280;56280;49.662;8.408;2024-01-27T07:46:44;102800.72;;;2.77;100.00
69173;BME280;56280;49.662;8.408;2024-01-27T07:49:09;102815.16;;;3.12;100.00
69173;BME280;56280;49.662;8.408;2024-01-27T07:51:41;102789.63;;;3.23;100.00
69173;BME280;56280;49.662;8.408;2024-01-27T07:54:06;102782.47;;;3.35;100.00
69173;BME280;56280;49.662;8.408;2024-01-27T07:56:31;102806.50;;;3.71;100.00
69173;BME280;56280;49.662;8.408;2024-01-27T07:58:56;102786.19;;;3.79;100.00
69173;BME280;56280;49.662;8.408;2024-01-27T08:01:22;102795.53;;;3.98;100.00
69173;BME280;56280;49.662;8.408;2024-01-27T08:03:47;102790.94;;;4.11;100.00
69173;BME280;56280;49.662;8.408;2024-01-27T08:06:17;102807.03;;;4.43;100.00
69173;BME280;56280;49.662;8.408;2024-01-27T08:08:47;102810.13;;;4.66;100.00
69173;BME280;56280;49.662;8.408;2024-01-27T08:11:15;102805.63;;;4.71;100.00
69173;BME280;56280;49.662;8.408;2024-01-27T08:13:42;102803.63;;;4.84;100.00
69173;BME280;56280;49.662;8.408;2024-01-27T08:16:08;102809.25;;;5.09;100.00
69173;BME280;56280;49.662;8.408;2024-01-27T08:18:40;102794.69;;;5.34;100.00
69173;BME280;56280;49.662;8.408;2024-01-27T08:21:08;102805.38;;;5.66;100.00
69173;BME280;56280;49.662;8.408;2024-01-27T08:23:33;102786.59;;;5.80;100.00
69173;BME280;56280;49.662;8.408;2024-01-27T08:25:58;102794.22;;;5.93;100.00
69173;BME280;56280;49.662;8.408;2024-01-27T08:28:24;102804.94;;;5.85;100.00
69173;BME280;56280;49.662;8.408;2024-01-27T08:30:49;102795.03;;;5.95;100.00
69173;BME280;56280;49.662;8.408;2024-01-27T08:33:14;102791.16;;;6.10;100.00
69173;BME280;56280;49.662;8.408;2024-01-27T08:35:40;102806.47;;;6.31;100.00
69173;BME280;56280;49.662;8.408;2024-01-27T08:38:05;102809.44;;;6.52;100.00
69173;BME280;56280;49.662;8.408;2024-01-27T08:40:31;102812.69;;;6.62;100.00
69173;BME280;56280;49.662;8.408;2024-01-27T08:42:57;102814.31;;;6.67;100.00
69173;BME280;56280;49.662;8.408;2024-01-27T08:45:22;102773.47;;;6.48;100.00
69173;BME280;56280;49.662;8.408;2024-01-27T08:47:48;102811.38;;;6.78;100.00
69173;BME280;56280;49.662;8.408;2024-01-27T08:50:13;102812.19;;;6.80;100.00
69173;BME280;56280;49.662;8.408;2024-01-27T08:52:39;102781.28;;;6.52;100.00
69173;BME280;56280;49.662;8.408;2024-01-27T08:55:04;102791.84;;;6.52;100.00
69173;BME280;56280;49.662;8.408;2024-01-27T08:57:30;102805.81;;;6.56;100.00
69173;BME280;56280;49.662;8.408;2024-01-27T08:59:55;102810.28;;;6.54;100.00
69173;BME280;56280;49.662;8.408;2024-01-27T09:02:20;102817.13;;;6.61;100.00
69173;BME280;56280;49.662;8.408;2024-01-27T09:04:45;102821.03;;;6.79;100.00
69173;BME280;56280;49.662;8.408;2024-01-27T09:07:11;102796.25;;;6.83;100.00
69173;BME280;56280;49.662;8.408;2024-01-27T09:09:37;102835.91;;;7.13;100.00
69173;BME280;56280;49.662;8.408;2024-01-27T09:12:04;102830.50;;;7.18;100.00
69173;BME280;56280;49.662;8.408;2024-01-27T09:14:29;102834.53;;;7.31;100.00
69173;BME280;56280;49.662;8.408;2024-01-27T09:16:54;102842.91;;;7.16;100.00
69173;BME280;56280;49.662;8.408;2024-01-27T09:19:20;102845.00;;;7.04;100.00
69173;BME280;56280;49.662;8.408;2024-01-27T09:21:45;102840.44;;;6.78;100.00
69173;BME280;56280;49.662;8.408;2024-01-27T09:24:10;102836.81;;;6.49;100.00
69173;BME280;56280;49.662;8.408;2024-01-27T09:26:36;102852.06;;;6.38;100.00
69173;BME280;56280;49.662;8.408;2024-01-27T09:29:01;102851.63;;;6.20;100.00
69173;BME280;56280;49.662;8.408;2024-01-27T09:31:26;102852.59;;;6.16;100.00
69173;BME280;56280;49.662;8.408;2024-01-27T09:33:52;102828.44;;;5.96;100.00
69173;BME280;56280;49.662;8.408;2024-01-27T09:36:19;102842.50;;;5.98;100.00
69173;BME280;56280;49.662;8.408;2024-01-27T09:38:45;102834.72;;;5.90;100.00
69173;BME280;56280;49.662;8.408;2024-01-27T09:41:12;102865.25;;;6.02;100.00
69173;BME280;56280;49.662;8.408;2024-01-27T09:43:41;102848.03;;;5.84;100.00
69173;BME280;56280;49.662;8.408;2024-01-27T09:46:07;102856.94;;;5.80;100.00
69173;BME280;56280;49.662;8.408;2024-01-27T09:48:33;102830.00;;;5.67;100.00
69173;BME280;56280;49.662;8.408;2024-01-27T09:50:59;102869.31;;;5.76;100.00
69173;BME280;56280;49.662;8.408;2024-01-27T09:53:24;102845.81;;;5.67;100.00
69173;BME280;56280;49.662;8.408;2024-01-27T09:55:50;102864.28;;;5.67;100.00
69173;BME280;56280;49.662;8.408;2024-01-27T09:58:16;102862.66;;;5.60;100.00
69173;BME280;56280;49.662;8.408;2024-01-27T10:00:41;102868.00;;;5.57;100.00
69173;BME280;56280;49.662;8.408;2024-01-27T10:03:07;102844.94;;;5.26;100.00
69173;BME280;56280;49.662;8.408;2024-01-27T10:05:33;102855.88;;;5.50;100.00
69173;BME280;56280;49.662;8.408;2024-01-27T10:07:59;102857.81;;;5.41;100.00
69173;BME280;56280;49.662;8.408;2024-01-27T10:10:25;102850.78;;;5.40;100.00
69173;BME280;56280;49.662;8.408;2024-01-27T10:12:52;102843.66;;;5.44;100.00
69173;BME280;56280;49.662;8.408;2024-01-27T10:15:22;102784.53;;;5.15;100.00
69173;BME280;56280;49.662;8.408;2024-01-27T10:17:48;102827.50;;;5.61;100.00
69173;BME280;56280;49.662;8.408;2024-01-27T10:20:13;102858.25;;;5.62;100.00
69173;BME280;56280;49.662;8.408;2024-01-27T10:22:44;102824.91;;;5.58;100.00
69173;BME280;56280;49.662;8.408;2024-01-27T10:25:10;102845.72;;;5.72;100.00
69173;BME280;56280;49.662;8.408;2024-01-27T10:27:36;102843.97;;;5.71;100.00
69173;BME280;56280;49.662;8.408;2024-01-27T10:30:02;102826.66;;;5.59;100.00
69173;BME280;56280;49.662;8.408;2024-01-27T10:32:28;102846.47;;;5.77;100.00
69173;BME280;56280;49.662;8.408;2024-01-27T10:35:03;102841.09;;;5.81;100.00
69173;BME280;56280;49.662;8.408;2024-01-27T10:37:28;102819.19;;;5.76;100.00
69173;BME280;56280;49.662;8.408;2024-01-27T10:40:07;102822.38;;;5.91;100.00
69173;BME280;56280;49.662;8.408;2024-01-27T10:42:37;102827.66;;;5.91;100.00
69173;BME280;56280;49.662;8.408;2024-01-27T10:45:04;102820.63;;;5.91;100.00
69173;BME280;56280;49.662;8.408;2024-01-27T10:47:31;102831.88;;;6.01;100.00
69173;BME280;56280;49.662;8.408;2024-01-27T10:49:58;102829.72;;;6.17;100.00
69173;BME280;56280;49.662;8.408;2024-01-27T10:52:25;102836.59;;;6.23;100.00
69173;BME280;56280;49.662;8.408;2024-01-27T10:54:58;102818.03;;;6.26;100.00
69173;BME280;56280;49.662;8.408;2024-01-27T10:57:25;102784.03;;;6.13;100.00
69173;BME280;56280;49.662;8.408;2024-01-27T10:59:53;102810.91;;;6.29;100.00
69173;BME280;56280;49.662;8.408;2024-01-27T11:02:18;102803.56;;;6.41;100.00
69173;BME280;56280;49.662;8.408;2024-01-27T11:04:44;102818.84;;;6.62;100.00
69173;BME280;56280;49.662;8.408;2024-01-27T11:07:11;102820.44;;;6.68;100.00
69173;BME280;56280;49.662;8.408;2024-01-27T11:09:37;102790.56;;;6.66;100.00
69173;BME280;56280;49.662;8.408;2024-01-27T11:12:03;102808.75;;;6.78;100.00
69173;BME280;56280;49.662;8.408;2024-01-27T11:14:29;102807.59;;;6.87;100.00
69173;BME280;56280;49.662;8.408;2024-01-27T11:16:56;102799.34;;;6.99;100.00
69173;BME280;56280;49.662;8.408;2024-01-27T11:19:21;102808.66;;;7.11;100.00
69173;BME280;56280;49.662;8.408;2024-01-27T11:21:47;102795.53;;;7.08;100.00
69173;BME280;56280;49.662;8.408;2024-01-27T11:24:17;102792.25;;;7.00;100.00
69173;BME280;56280;49.662;8.408;2024-01-27T11:26:43;102772.91;;;6.99;100.00
69173;BME280;56280;49.662;8.408;2024-01-27T11:29:09;102784.88;;;7.11;100.00
69173;BME280;56280;49.662;8.408;2024-01-27T11:31:43;102787.25;;;7.20;100.00
69173;BME280;56280;49.662;8.408;2024-01-27T11:34:10;102806.94;;;7.40;100.00
69173;BME280;56280;49.662;8.408;2024-01-27T11:36:37;102789.63;;;7.29;100.00
69173;BME280;56280;49.662;8.408;2024-01-27T11:39:03;102791.88;;;7.42;100.00
69173;BME280;56280;49.662;8.408;2024-01-27T11:41:29;102777.16;;;7.33;100.00
69173;BME280;56280;49.662;8.408;2024-01-27T11:43:56;102780.63;;;7.35;100.00
69173;BME280;56280;49.662;8.408;2024-01-27T11:46:22;102785.97;;;7.34;100.00
69173;BME280;56280;49.662;8.408;2024-01-27T11:48:48;102770.28;;;7.27;100.00
69173;BME280;56280;49.662;8.408;2024-01-27T11:51:14;102782.75;;;7.52;100.00
69173;BME280;56280;49.662;8.408;2024-01-27T11:53:39;102764.53;;;7.43;100.00
69173;BME280;56280;49.662;8.408;2024-01-27T11:56:05;102751.44;;;7.38;100.00
69173;BME280;56280;49.662;8.408;2024-01-27T11:58:31;102762.41;;;7.54;100.00
69173;BME280;56280;49.662;8.408;2024-01-27T12:00:56;102771.72;;;7.66;100.00
69173;BME280;56280;49.662;8.408;2024-01-27T12:03:23;102775.97;;;7.72;100.00
69173;BME280;56280;49.662;8.408;2024-01-27T12:05:48;102757.06;;;7.56;100.00
69173;BME280;56280;49.662;8.408;2024-01-27T12:08:14;102765.56;;;7.65;100.00
69173;BME280;56280;49.662;8.408;2024-01-27T12:10:39;102781.66;;;7.86;100.00
69173;BME280;56280;49.662;8.408;2024-01-27T12:13:04;102767.56;;;7.59;100.00
69173;BME280;56280;49.662;8.408;2024-01-27T12:15:30;102740.69;;;7.44;100.00
69173;BME280;56280;49.662;8.408;2024-01-27T12:17:55;102765.66;;;7.62;100.00
69173;BME280;56280;49.662;8.408;2024-01-27T12:20:22;102785.84;;;7.66;100.00
69173;BME280;56280;49.662;8.408;2024-01-27T12:22:48;102786.25;;;7.53;100.00
69173;BME280;56280;49.662;8.408;2024-01-27T12:25:16;102783.25;;;7.07;100.00
69173;BME280;56280;49.662;8.408;2024-01-27T12:27:41;102781.28;;;6.52;100.00
69173;BME280;56280;49.662;8.408;2024-01-27T12:30:08;102783.06;;;6.50;100.00
69173;BME280;56280;49.662;8.408;2024-01-27T12:32:33;102765.22;;;6.27;100.00
69173;BME280;56280;49.662;8.408;2024-01-27T12:35:07;102754.69;;;6.59;100.00
69173;BME280;56280;49.662;8.408;2024-01-27T12:37:34;102764.78;;;6.75;100.00
69173;BME280;56280;49.662;8.408;2024-01-27T12:40:00;102761.88;;;6.85;100.00
69173;BME280;56280;49.662;8.408;2024-01-27T12:42:25;102750.84;;;6.70;100.00